createdAt,value
2017-05-10T00:01:07.170Z,68.45
2017-05-10T00:03:34.980Z,68.51
2017-05-10T00:06:02.553Z,69.17
2017-05-10T00:08:30.272Z,69.32
2017-05-10T00:10:57.819Z,69.00
2017-05-10T00:13:25.340Z,69.57
2017-05-10T00:15:53.018Z,68.98
2017-05-10T00:18:20.526Z,69.14
2017-05-10T00:20:48.057Z,69.68
2017-05-10T00:23:15.608Z,69.40
2017-05-10T00:25:43.124Z,69.35
2017-05-10T00:28:11.152Z,70.24
2017-05-10T00:30:38.661Z,69.18
2017-05-10T00:33:06.166Z,70.57
2017-05-10T00:35:33.707Z,70.21
2017-05-10T00:38:01.224Z,71.24
2017-05-10T00:40:28.789Z,71.46
2017-05-10T00:42:56.307Z,69.50
2017-05-10T00:45:23.849Z,69.27
2017-05-10T00:47:51.389Z,69.80
2017-05-10T00:50:18.906Z,70.43
2017-05-10T00:52:46.464Z,71.41
2017-05-10T00:55:14.005Z,71.81
2017-05-10T00:57:41.535Z,71.44
2017-05-10T01:00:09.051Z,71.13
2017-05-10T01:02:36.608Z,70.12
2017-05-10T01:05:04.141Z,70.14
2017-05-10T01:07:32.096Z,70.09
2017-05-10T01:09:59.687Z,71.58
2017-05-10T01:12:27.241Z,71.68
2017-05-10T01:14:54.870Z,71.79
2017-05-10T01:17:22.451Z,71.80
2017-05-10T01:19:50.016Z,72.25
2017-05-10T01:22:17.528Z,72.60
2017-05-10T01:24:45.055Z,72.90
2017-05-10T01:27:12.592Z,72.41
2017-05-10T01:29:40.103Z,72.07
2017-05-10T01:32:07.670Z,71.19
2017-05-10T01:34:35.176Z,70.29
2017-05-10T01:37:02.683Z,71.57
2017-05-10T01:39:30.253Z,71.68
2017-05-10T01:41:57.768Z,71.14
2017-05-10T01:44:25.371Z,72.25
2017-05-10T01:46:52.912Z,72.86
2017-05-10T01:49:20.414Z,72.61
2017-05-10T01:51:47.967Z,73.19
2017-05-10T01:54:15.479Z,72.72
2017-05-10T01:56:43.023Z,72.59
2017-05-10T01:59:10.539Z,74.12
2017-05-10T02:01:38.172Z,73.67
2017-05-10T02:04:05.683Z,73.71
2017-05-10T02:06:33.196Z,72.93
2017-05-10T02:09:00.755Z,73.83
2017-05-10T02:11:28.265Z,73.37
2017-05-10T02:13:55.809Z,73.98
2017-05-10T02:16:23.363Z,73.96
2017-05-10T02:18:51.195Z,73.69
2017-05-10T02:21:18.708Z,73.98
2017-05-10T02:23:46.256Z,74.31
2017-05-10T02:26:13.853Z,74.24
2017-05-10T02:28:41.724Z,73.60
2017-05-10T02:31:09.232Z,73.41
2017-05-10T02:33:36.747Z,73.45
2017-05-10T02:36:04.360Z,72.92
2017-05-10T02:38:31.940Z,74.27
2017-05-10T02:40:59.495Z,73.94
2017-05-10T02:43:27.169Z,73.00
2017-05-10T02:45:55.055Z,72.12
2017-05-10T02:48:22.570Z,71.53
2017-05-10T02:50:50.087Z,70.79
2017-05-10T02:53:17.642Z,70.94
2017-05-10T02:55:45.164Z,71.98
2017-05-10T02:58:12.715Z,72.14
2017-05-10T03:00:40.259Z,72.55
2017-05-10T03:03:07.821Z,72.95
2017-05-10T03:05:35.353Z,72.14
2017-05-10T03:08:02.876Z,73.64
2017-05-10T03:10:30.472Z,74.23
2017-05-10T03:12:57.996Z,74.59
2017-05-10T03:15:25.536Z,74.32
2017-05-10T03:17:53.061Z,74.29
2017-05-10T03:20:20.612Z,73.96
2017-05-10T03:22:48.130Z,74.14
2017-05-10T03:25:15.853Z,75.14
2017-05-10T03:27:43.415Z,75.80
2017-05-10T03:30:11.232Z,75.85
2017-05-10T03:32:38.760Z,75.29
2017-05-10T03:35:06.293Z,74.61
2017-05-10T03:37:33.848Z,73.91
2017-05-10T03:40:01.368Z,73.97
2017-05-10T03:42:29.319Z,73.98
2017-05-10T03:44:56.836Z,74.30
2017-05-10T03:47:24.349Z,73.71
2017-05-10T03:49:51.911Z,72.94
2017-05-10T03:52:19.433Z,72.22
2017-05-10T03:54:47.243Z,71.95
2017-05-10T03:57:14.839Z,71.15
2017-05-10T03:59:42.355Z,71.06
2017-05-10T04:02:10.003Z,70.69
2017-05-10T04:04:37.579Z,71.11
2017-05-10T04:07:05.311Z,70.66
2017-05-10T04:09:32.853Z,70.77
2017-05-10T04:12:00.410Z,70.64
2017-05-10T04:14:27.924Z,70.32
2017-05-10T04:16:55.434Z,70.03
2017-05-10T04:19:22.979Z,69.86
2017-05-10T04:21:50.588Z,69.93
2017-05-10T04:24:18.148Z,70.50
2017-05-10T04:26:45.722Z,70.40
2017-05-10T04:29:13.297Z,70.29
2017-05-10T04:31:40.807Z,70.25
2017-05-10T04:34:08.319Z,70.86
2017-05-10T04:36:35.865Z,70.57
2017-05-10T04:39:03.395Z,70.72
2017-05-10T04:41:30.948Z,70.36
2017-05-10T04:43:58.459Z,70.25
2017-05-10T04:46:25.980Z,69.97
2017-05-10T04:48:53.541Z,70.11
2017-05-10T04:51:21.067Z,69.82
2017-05-10T04:53:48.725Z,69.87
2017-05-10T04:56:16.227Z,69.66
2017-05-10T04:58:43.754Z,69.54
2017-05-10T05:01:11.317Z,69.53
2017-05-10T05:03:38.859Z,69.25
2017-05-10T05:06:06.424Z,69.52
2017-05-10T05:08:33.927Z,69.35
2017-05-10T05:11:01.474Z,69.37
2017-05-10T05:13:29.011Z,69.10
2017-05-10T05:15:56.696Z,69.08
2017-05-10T05:18:24.222Z,68.80
2017-05-10T05:20:51.744Z,68.65
2017-05-10T05:23:19.284Z,68.04
2017-05-10T05:25:46.804Z,68.28
2017-05-10T05:28:14.372Z,68.91
2017-05-10T05:30:41.883Z,67.61
2017-05-10T05:33:09.602Z,67.87
2017-05-10T05:35:37.197Z,67.73
2017-05-10T05:38:04.698Z,66.83
2017-05-10T05:40:32.237Z,66.98
2017-05-10T05:42:59.747Z,67.50
2017-05-10T05:45:27.423Z,67.53
2017-05-10T05:47:54.936Z,66.37
2017-05-10T05:50:22.504Z,65.85
2017-05-10T05:52:50.064Z,65.92
2017-05-10T05:55:17.636Z,65.81
2017-05-10T05:57:45.289Z,65.33
2017-05-10T06:00:12.802Z,64.90
2017-05-10T06:02:40.333Z,65.15
2017-05-10T06:05:07.879Z,65.12
2017-05-10T06:07:35.409Z,64.97
2017-05-10T06:10:02.968Z,64.89
2017-05-10T06:12:30.497Z,64.78
2017-05-10T06:14:58.085Z,65.19
2017-05-10T06:17:25.612Z,65.07
2017-05-10T06:19:53.279Z,65.24
2017-05-10T06:22:20.799Z,65.46
2017-05-10T06:24:48.311Z,65.84
2017-05-10T06:27:15.856Z,65.89
2017-05-10T06:29:43.391Z,66.07
2017-05-10T06:32:10.960Z,65.34
2017-05-10T06:34:38.477Z,65.37
2017-05-10T06:37:06.067Z,65.69
2017-05-10T06:39:33.608Z,65.38
2017-05-10T06:42:01.179Z,64.98
2017-05-10T06:44:28.703Z,65.85
2017-05-10T06:46:56.370Z,65.22
2017-05-10T06:49:23.892Z,65.37
2017-05-10T06:51:51.445Z,65.19
2017-05-10T06:54:19.189Z,65.26
2017-05-10T06:56:46.729Z,65.65
2017-05-10T06:59:14.336Z,66.38
2017-05-10T07:01:41.861Z,66.20
2017-05-10T07:04:09.534Z,65.90
2017-05-10T07:06:37.163Z,65.16
2017-05-10T07:09:04.683Z,64.90
2017-05-10T07:11:32.258Z,64.95
2017-05-10T07:13:59.824Z,64.54
2017-05-10T07:16:27.395Z,64.16
2017-05-10T07:18:54.988Z,64.64
2017-05-10T07:21:22.651Z,65.29
2017-05-10T07:23:50.216Z,64.75
2017-05-10T07:26:17.893Z,64.90
2017-05-10T07:28:45.412Z,65.10
2017-05-10T07:31:12.943Z,64.89
2017-05-10T07:33:40.509Z,64.95
2017-05-10T07:36:08.053Z,64.16
2017-05-10T07:38:35.629Z,63.79
2017-05-10T07:41:03.159Z,64.17
2017-05-10T07:43:30.835Z,64.30
2017-05-10T07:45:58.451Z,64.07
2017-05-10T07:48:26.002Z,63.26
2017-05-10T07:50:53.726Z,63.47
2017-05-10T07:53:21.263Z,63.15
2017-05-10T07:55:48.903Z,62.99
2017-05-10T07:58:16.439Z,61.94
2017-05-10T08:00:44.352Z,61.19
2017-05-10T08:03:11.898Z,60.53
2017-05-10T08:05:39.531Z,59.88
2017-05-10T08:08:07.092Z,59.24
2017-05-10T08:10:34.631Z,58.09
2017-05-10T08:13:02.201Z,58.17
2017-05-10T08:15:29.727Z,56.29
2017-05-10T08:17:57.404Z,56.13
2017-05-10T08:20:24.934Z,56.85
2017-05-10T08:22:52.459Z,57.84
2017-05-10T08:25:20.160Z,57.75
2017-05-10T08:27:47.678Z,58.25
2017-05-10T08:30:15.248Z,56.46
2017-05-10T08:32:42.775Z,56.48
2017-05-10T08:35:10.496Z,55.67
2017-05-10T08:37:38.044Z,55.67
2017-05-10T08:40:05.591Z,56.51
2017-05-10T08:42:33.143Z,56.03
2017-05-10T08:45:00.688Z,54.59
2017-05-10T08:47:28.331Z,53.74
2017-05-10T08:49:55.853Z,53.34
2017-05-10T08:52:23.764Z,53.11
2017-05-10T08:54:51.283Z,52.98
2017-05-10T08:57:18.902Z,53.27
2017-05-10T08:59:46.465Z,52.69
2017-05-10T09:02:13.984Z,52.25
2017-05-10T09:04:41.536Z,52.16
2017-05-10T09:07:09.064Z,51.77
2017-05-10T09:09:36.985Z,51.74
2017-05-10T09:12:04.512Z,52.01
2017-05-10T09:14:32.272Z,52.37
2017-05-10T09:16:59.840Z,51.35
2017-05-10T09:19:27.356Z,51.58
2017-05-10T09:21:54.915Z,50.17
2017-05-10T09:24:22.464Z,49.55
2017-05-10T09:26:50.037Z,49.00
2017-05-10T09:29:17.603Z,47.85
2017-05-10T09:31:45.175Z,47.41
2017-05-10T09:34:12.739Z,47.12
2017-05-10T09:36:40.512Z,48.57
2017-05-10T09:39:08.063Z,47.03
2017-05-10T09:41:35.586Z,45.56
2017-05-10T09:44:03.177Z,44.27
2017-05-10T09:46:30.730Z,44.42
2017-05-10T09:48:58.313Z,44.97
2017-05-10T09:51:25.861Z,46.04
2017-05-10T09:53:53.433Z,45.95
2017-05-10T09:56:20.962Z,45.13
2017-05-10T09:58:48.630Z,42.66
2017-05-10T10:01:16.151Z,42.18
2017-05-10T10:03:43.734Z,42.97
2017-05-10T10:06:11.314Z,43.28
2017-05-10T10:08:39.286Z,43.89
2017-05-10T10:11:06.843Z,41.39
2017-05-10T10:13:34.391Z,43.64
2017-05-10T10:16:02.071Z,42.96
2017-05-10T10:18:29.629Z,42.08
2017-05-10T10:20:57.149Z,42.36
2017-05-10T10:23:24.756Z,42.21
2017-05-10T10:25:52.280Z,43.23
2017-05-10T10:28:19.843Z,42.29
2017-05-10T10:30:47.403Z,41.21
2017-05-10T10:33:15.086Z,41.12
2017-05-10T10:35:42.608Z,42.14
2017-05-10T10:38:10.140Z,40.68
2017-05-10T10:40:37.727Z,40.62
2017-05-10T10:43:05.246Z,41.29
2017-05-10T10:45:32.829Z,39.58
2017-05-10T10:48:00.378Z,39.32
2017-05-10T10:50:27.961Z,39.65
2017-05-10T10:52:55.512Z,39.70
2017-05-10T10:55:23.444Z,38.15
2017-05-10T10:57:50.963Z,39.15
2017-05-10T11:00:18.500Z,37.92
2017-05-10T11:02:46.055Z,37.29
2017-05-10T11:05:13.575Z,37.98
2017-05-10T11:07:41.148Z,38.00
2017-05-10T11:10:08.707Z,36.88
2017-05-10T11:12:36.263Z,34.85
2017-05-10T11:15:03.802Z,36.08
2017-05-10T11:17:31.560Z,36.11
2017-05-10T11:19:59.135Z,34.57
2017-05-10T11:22:26.681Z,34.19
2017-05-10T11:24:54.291Z,33.66
2017-05-10T11:27:21.830Z,35.32
2017-05-10T11:29:49.578Z,35.18
2017-05-10T11:32:17.100Z,34.65
2017-05-10T11:34:44.627Z,34.45
2017-05-10T11:37:12.196Z,34.75
2017-05-10T11:39:39.724Z,33.13
2017-05-10T11:42:07.292Z,33.30
2017-05-10T11:44:34.827Z,32.61
2017-05-10T11:47:02.498Z,33.16
2017-05-10T11:49:30.032Z,31.30
2017-05-10T11:51:57.562Z,31.28
2017-05-10T11:54:25.131Z,32.06
2017-05-10T11:56:52.660Z,31.31
2017-05-10T11:59:20.235Z,31.13
2017-05-10T12:01:47.765Z,31.17
2017-05-10T12:04:15.327Z,32.54
2017-05-10T12:06:42.887Z,31.24
2017-05-10T12:09:10.440Z,32.52
2017-05-10T12:11:38.003Z,31.36
2017-05-10T12:14:05.532Z,32.00
2017-05-10T12:16:33.093Z,30.97
2017-05-10T12:19:00.615Z,31.58
2017-05-10T12:21:28.164Z,31.32
2017-05-10T12:23:55.740Z,31.73
2017-05-10T12:26:23.317Z,32.08
2017-05-10T12:28:50.864Z,31.53
2017-05-10T12:31:18.401Z,31.96
2017-05-10T12:33:46.224Z,32.71
2017-05-10T12:36:13.783Z,30.82
2017-05-10T12:38:41.268Z,29.87
2017-05-10T12:41:08.819Z,28.96
2017-05-10T12:43:36.352Z,28.74
2017-05-10T12:46:03.911Z,30.31
2017-05-10T12:48:31.444Z,29.73
2017-05-10T12:50:59.004Z,29.39
2017-05-10T12:53:26.568Z,30.01
2017-05-10T12:55:54.113Z,31.48
2017-05-10T12:58:21.627Z,30.41
2017-05-10T13:00:49.816Z,30.35
2017-05-10T13:03:17.358Z,29.55
2017-05-10T13:05:45.197Z,29.82
2017-05-10T13:08:12.743Z,30.06
2017-05-10T13:10:40.259Z,29.39
2017-05-10T13:13:07.839Z,30.99
2017-05-10T13:15:35.362Z,29.35
2017-05-10T13:18:02.935Z,29.25
2017-05-10T13:20:30.495Z,29.46
2017-05-10T13:22:58.043Z,29.32
2017-05-10T13:25:25.591Z,27.77
2017-05-10T13:27:53.500Z,27.87
2017-05-10T13:30:21.022Z,27.21
2017-05-10T13:32:48.564Z,26.47
2017-05-10T13:35:16.248Z,26.56
2017-05-10T13:37:43.880Z,27.66
2017-05-10T13:40:11.784Z,27.42
2017-05-10T13:42:39.310Z,27.67
2017-05-10T13:45:06.848Z,26.63
2017-05-10T13:47:34.747Z,26.79
2017-05-10T13:50:02.264Z,26.93
2017-05-10T13:52:29.807Z,26.61
2017-05-10T13:54:57.356Z,26.87
2017-05-10T13:57:24.915Z,26.23
2017-05-10T13:59:52.493Z,26.45
2017-05-10T14:02:20.036Z,26.20
2017-05-10T14:04:47.553Z,25.48
2017-05-10T14:07:15.468Z,24.91
2017-05-10T14:09:42.990Z,24.78
2017-05-10T14:12:10.538Z,23.74
2017-05-10T14:14:38.104Z,24.32
2017-05-10T14:17:05.682Z,23.92
2017-05-10T14:19:33.668Z,23.97
2017-05-10T14:22:01.317Z,22.73
2017-05-10T14:24:28.877Z,22.32
2017-05-10T14:26:56.559Z,23.51
2017-05-10T14:29:24.209Z,24.48
2017-05-10T14:31:51.797Z,24.34
2017-05-10T14:34:19.377Z,23.00
2017-05-10T14:36:47.305Z,23.11
2017-05-10T14:39:14.855Z,22.95
2017-05-10T14:41:42.389Z,23.00
2017-05-10T14:44:09.972Z,24.31
2017-05-10T14:46:37.531Z,24.19
2017-05-10T14:49:05.141Z,24.30
2017-05-10T14:51:32.688Z,24.44
2017-05-10T14:54:00.336Z,25.29
2017-05-10T14:56:27.969Z,25.41
2017-05-10T14:58:55.595Z,25.42
2017-05-10T15:01:23.136Z,24.96
2017-05-10T15:03:50.719Z,24.99
2017-05-10T15:06:18.239Z,25.72
2017-05-10T15:08:45.817Z,25.86
2017-05-10T15:11:13.387Z,25.83
2017-05-10T15:13:40.977Z,25.69
2017-05-10T15:16:08.538Z,26.35
2017-05-10T15:18:36.067Z,25.60
2017-05-10T15:21:03.733Z,25.75
2017-05-10T15:23:31.268Z,25.27
2017-05-10T15:25:59.106Z,25.47
2017-05-10T15:28:26.694Z,25.33
2017-05-10T15:30:54.256Z,25.42
2017-05-10T15:33:21.850Z,26.63
2017-05-10T15:35:49.410Z,26.20
2017-05-10T15:38:16.946Z,25.62
2017-05-10T15:40:44.565Z,25.82
2017-05-10T15:43:12.461Z,26.40
2017-05-10T15:45:40.026Z,26.49
2017-05-10T15:48:08.524Z,25.62
2017-05-10T15:50:36.075Z,25.31
2017-05-10T15:53:03.648Z,25.49
2017-05-10T15:55:31.215Z,26.43
2017-05-10T15:57:58.760Z,25.45
2017-05-10T16:00:26.347Z,25.41
2017-05-10T16:02:53.900Z,25.33
2017-05-10T16:05:21.464Z,26.06
2017-05-10T16:07:49.040Z,26.05
2017-05-10T16:10:16.599Z,26.46
2017-05-10T16:12:44.347Z,25.57
2017-05-10T16:15:11.874Z,27.00
2017-05-10T16:17:39.407Z,26.49
2017-05-10T16:20:06.976Z,26.24
2017-05-10T16:22:34.499Z,26.85
2017-05-10T16:25:02.507Z,26.49
2017-05-10T16:27:30.044Z,27.07
2017-05-10T16:29:57.609Z,26.83
2017-05-10T16:32:25.198Z,26.92
2017-05-10T16:34:53.208Z,26.78
2017-05-10T16:37:20.771Z,26.62
2017-05-10T16:39:48.348Z,27.27
2017-05-10T16:42:15.976Z,26.49
2017-05-10T16:44:43.524Z,26.14
2017-05-10T16:47:11.096Z,26.60
2017-05-10T16:49:38.648Z,26.52
2017-05-10T16:52:06.584Z,26.34
2017-05-10T16:54:34.110Z,26.81
2017-05-10T16:57:01.635Z,26.23
2017-05-10T16:59:29.204Z,27.33
2017-05-10T17:01:56.747Z,26.63
2017-05-10T17:04:24.337Z,26.85
2017-05-10T17:06:51.885Z,27.30
2017-05-10T17:09:19.468Z,27.36
2017-05-10T17:11:47.036Z,27.92
2017-05-10T17:14:14.608Z,26.24
2017-05-10T17:16:42.183Z,26.29
2017-05-10T17:19:09.788Z,26.86
2017-05-10T17:21:37.331Z,26.85
2017-05-10T17:24:04.878Z,26.09
2017-05-10T17:26:32.856Z,26.19
2017-05-10T17:29:00.386Z,25.53
2017-05-10T17:31:27.931Z,25.42
2017-05-10T17:33:55.527Z,25.45
2017-05-10T17:36:23.058Z,24.83
2017-05-10T17:38:50.620Z,24.61
2017-05-10T17:41:18.164Z,24.19
2017-05-10T17:43:46.065Z,24.81
2017-05-10T17:46:13.600Z,24.04
2017-05-10T17:48:41.134Z,23.74
2017-05-10T17:51:08.719Z,23.76
2017-05-10T17:53:36.603Z,23.45
2017-05-10T17:56:04.139Z,23.15
2017-05-10T17:58:31.690Z,23.33
2017-05-10T18:00:59.275Z,23.39
2017-05-10T18:03:26.787Z,23.54
2017-05-10T18:05:54.332Z,24.02
2017-05-10T18:08:21.880Z,24.45
2017-05-10T18:10:49.615Z,26.02
2017-05-10T18:13:17.134Z,26.92
2017-05-10T18:15:44.702Z,27.42
2017-05-10T18:18:13.848Z,27.58
2017-05-10T18:20:41.460Z,28.23
2017-05-10T18:23:09.098Z,28.42
2017-05-10T18:25:36.641Z,29.04
2017-05-10T18:28:04.286Z,29.16
2017-05-10T18:30:31.816Z,29.37
2017-05-10T18:32:59.536Z,29.67
2017-05-10T18:35:27.048Z,29.87
2017-05-10T18:37:54.595Z,30.04
2017-05-10T18:40:22.178Z,29.99
2017-05-10T18:42:49.727Z,30.34
2017-05-10T18:45:17.655Z,29.98
2017-05-10T18:47:45.171Z,30.60
2017-05-10T18:50:12.692Z,31.05
2017-05-10T18:52:40.265Z,31.89
2017-05-10T18:55:07.797Z,33.19
2017-05-10T18:57:35.370Z,32.47
2017-05-10T19:00:02.923Z,32.19
2017-05-10T19:02:30.598Z,33.18
2017-05-10T19:04:58.142Z,34.24
2017-05-10T19:07:25.673Z,35.07
2017-05-10T19:09:53.269Z,34.85
2017-05-10T19:12:20.930Z,35.03
2017-05-10T19:14:48.475Z,35.47
2017-05-10T19:17:16.203Z,36.18
2017-05-10T19:19:43.791Z,36.19
2017-05-10T19:22:11.363Z,35.73
2017-05-10T19:24:39.145Z,35.06
2017-05-10T19:27:06.732Z,35.84
2017-05-10T19:29:34.261Z,36.08
2017-05-10T19:32:01.889Z,36.62
2017-05-10T19:34:29.433Z,36.20
2017-05-10T19:36:57.176Z,36.32
2017-05-10T19:39:24.734Z,36.25
2017-05-10T19:41:52.274Z,36.62
2017-05-10T19:44:19.844Z,37.39
2017-05-10T19:46:47.385Z,37.74
2017-05-10T19:49:15.156Z,38.11
2017-05-10T19:51:42.690Z,38.75
2017-05-10T19:54:10.206Z,38.79
2017-05-10T19:56:37.791Z,38.20
2017-05-10T19:59:05.330Z,39.28
2017-05-10T20:01:32.934Z,39.22
2017-05-10T20:04:00.452Z,39.47
2017-05-10T20:06:28.018Z,39.45
2017-05-10T20:08:55.604Z,40.04
2017-05-10T20:11:23.491Z,40.55
2017-05-10T20:13:51.033Z,40.66
2017-05-10T20:16:18.616Z,41.54
2017-05-10T20:18:46.439Z,41.92
2017-05-10T20:21:13.981Z,42.17
2017-05-10T20:23:41.522Z,42.44
2017-05-10T20:26:09.097Z,42.93
2017-05-10T20:28:36.648Z,42.36
2017-05-10T20:31:04.221Z,42.73
2017-05-10T20:33:31.768Z,42.80
2017-05-10T20:35:59.363Z,42.55
2017-05-10T20:38:26.928Z,41.20
2017-05-10T20:40:54.509Z,42.03
2017-05-10T20:43:22.055Z,42.81
2017-05-10T20:45:49.599Z,42.41
2017-05-10T20:48:17.247Z,42.38
2017-05-10T20:50:44.810Z,43.49
2017-05-10T20:53:12.394Z,43.79
2017-05-10T20:55:40.018Z,44.62
2017-05-10T20:58:07.592Z,44.39
2017-05-10T21:00:35.188Z,44.55
2017-05-10T21:03:02.740Z,43.89
2017-05-10T21:05:30.688Z,44.35
2017-05-10T21:07:58.230Z,45.27
2017-05-10T21:10:25.777Z,44.81
2017-05-10T21:12:53.353Z,45.09
2017-05-10T21:15:20.873Z,45.97
2017-05-10T21:17:48.473Z,45.25
2017-05-10T21:20:15.993Z,45.97
2017-05-10T21:22:43.672Z,46.66
2017-05-10T21:25:11.189Z,47.34
2017-05-10T21:27:38.718Z,47.08
2017-05-10T21:30:06.288Z,46.65
2017-05-10T21:32:33.836Z,46.38
2017-05-10T21:35:01.420Z,47.19
2017-05-10T21:37:28.947Z,47.30
2017-05-10T21:39:56.623Z,47.27
2017-05-10T21:42:24.144Z,48.13
2017-05-10T21:44:51.669Z,48.57
2017-05-10T21:47:19.231Z,49.01
2017-05-10T21:49:46.851Z,48.75
2017-05-10T21:52:14.397Z,49.60
2017-05-10T21:54:41.973Z,48.86
2017-05-10T21:57:09.699Z,49.12
2017-05-10T21:59:37.218Z,49.56
2017-05-10T22:02:04.768Z,49.18
2017-05-10T22:04:32.326Z,49.11
2017-05-10T22:06:59.859Z,49.12
2017-05-10T22:09:27.470Z,49.21
2017-05-10T22:11:54.987Z,49.27
2017-05-10T22:14:22.542Z,50.00
2017-05-10T22:16:50.202Z,50.05
2017-05-10T22:19:17.719Z,49.98
2017-05-10T22:21:45.375Z,51.12
2017-05-10T22:24:12.952Z,51.60
2017-05-10T22:26:40.585Z,51.51
2017-05-10T22:29:08.141Z,51.20
2017-05-10T22:31:35.655Z,51.27
2017-05-10T22:34:03.209Z,52.77
2017-05-10T22:36:30.825Z,52.17
2017-05-10T22:38:58.402Z,52.37
2017-05-10T22:41:25.918Z,52.52
2017-05-10T22:43:53.488Z,52.90
2017-05-10T22:46:21.007Z,52.50
2017-05-10T22:48:48.775Z,52.38
2017-05-10T22:51:16.348Z,52.99
2017-05-10T22:53:43.976Z,52.25
2017-05-10T22:56:11.662Z,52.25
2017-05-10T22:58:39.201Z,52.20
2017-05-10T23:01:06.764Z,52.74
2017-05-10T23:03:34.649Z,53.24
2017-05-10T23:06:08.827Z,53.75
2017-05-10T23:08:36.517Z,53.56
2017-05-10T23:11:04.040Z,53.50
2017-05-10T23:13:31.564Z,53.55
2017-05-10T23:15:59.163Z,53.26
2017-05-10T23:18:26.747Z,53.57
2017-05-10T23:20:54.315Z,54.50
2017-05-10T23:23:21.901Z,54.22
2017-05-10T23:25:49.530Z,54.32
2017-05-10T23:28:17.100Z,54.53
2017-05-10T23:30:44.625Z,55.28
2017-05-10T23:33:12.192Z,55.66
2017-05-10T23:35:39.721Z,54.93
2017-05-10T23:38:07.276Z,55.61
2017-05-10T23:40:34.910Z,56.34
2017-05-10T23:43:02.491Z,56.06
2017-05-10T23:45:30.003Z,56.66
2017-05-10T23:47:57.522Z,56.73
2017-05-10T23:50:25.086Z,56.80
2017-05-10T23:52:52.615Z,57.14
2017-05-10T23:55:20.211Z,57.68
2017-05-10T23:57:47.744Z,58.19
